sensor_id;sensor_type;location;lat;lon;timestamp;P1;durP1;ratioP1;P2;durP2;ratioP2
58784;SDS011;44557;51.862;19.378;2023-09-08T00:01:27;9.70;;;6.80;;
58784;SDS011;44557;51.862;19.378;2023-09-08T00:03:29;10.10;;;6.40;;
58784;SDS011;44557;51.862;19.378;2023-09-08T00:05:31;8.30;;;6.20;;
58784;SDS011;44557;51.862;19.378;2023-09-08T00:07:33;8.60;;;6.50;;
58784;SDS011;44557;51.862;19.378;2023-09-08T00:09:36;9.50;;;6.50;;
58784;SDS011;44557;51.862;19.378;2023-09-08T00:11:38;10.00;;;6.80;;
58784;SDS011;44557;51.862;19.378;2023-09-08T00:13:42;8.70;;;6.60;;
58784;SDS011;44557;51.862;19.378;2023-09-08T00:15:44;9.10;;;6.70;;
58784;SDS011;44557;51.862;19.378;2023-09-08T00:17:45;10.40;;;7.10;;
58784;SDS011;44557;51.862;19.378;2023-09-08T00:19:49;8.90;;;6.70;;
58784;SDS011;44557;51.862;19.378;2023-09-08T00:21:52;10.50;;;7.50;;
58784;SDS011;44557;51.862;19.378;2023-09-08T00:23:54;11.50;;;7.00;;
58784;SDS011;44557;51.862;19.378;2023-09-08T00:25:56;9.80;;;7.00;;
58784;SDS011;44557;51.862;19.378;2023-09-08T00:28:00;10.00;;;6.30;;
58784;SDS011;44557;51.862;19.378;2023-09-08T00:30:02;11.00;;;7.10;;
58784;SDS011;44557;51.862;19.378;2023-09-08T00:32:05;10.40;;;7.10;;
58784;SDS011;44557;51.862;19.378;2023-09-08T00:34:08;9.80;;;7.20;;
58784;SDS011;44557;51.862;19.378;2023-09-08T00:36:10;9.30;;;7.20;;
58784;SDS011;44557;51.862;19.378;2023-09-08T00:38:11;8.10;;;6.80;;
58784;SDS011;44557;51.862;19.378;2023-09-08T00:40:14;10.20;;;7.50;;
58784;SDS011;44557;51.862;19.378;2023-09-08T00:42:16;9.20;;;6.80;;
58784;SDS011;44557;51.862;19.378;2023-09-08T00:44:18;9.10;;;7.00;;
58784;SDS011;44557;51.862;19.378;2023-09-08T00:46:19;10.70;;;7.20;;
58784;SDS011;44557;51.862;19.378;2023-09-08T00:48:21;9.00;;;7.60;;
58784;SDS011;44557;51.862;19.378;2023-09-08T00:50:24;9.00;;;7.00;;
58784;SDS011;44557;51.862;19.378;2023-09-08T00:52:28;9.90;;;7.20;;
58784;SDS011;44557;51.862;19.378;2023-09-08T00:54:34;8.00;;;6.90;;
58784;SDS011;44557;51.862;19.378;2023-09-08T00:56:37;8.50;;;6.90;;
58784;SDS011;44557;51.862;19.378;2023-09-08T00:58:40;10.00;;;7.20;;
58784;SDS011;44557;51.862;19.378;2023-09-08T01:00:43;8.20;;;6.50;;
58784;SDS011;44557;51.862;19.378;2023-09-08T01:02:46;9.60;;;6.80;;
58784;SDS011;44557;51.862;19.378;2023-09-08T01:04:48;9.00;;;6.80;;
58784;SDS011;44557;51.862;19.378;2023-09-08T01:06:51;9.30;;;6.90;;
58784;SDS011;44557;51.862;19.378;2023-09-08T01:08:54;9.40;;;7.00;;
58784;SDS011;44557;51.862;19.378;2023-09-08T01:10:56;9.50;;;7.10;;
58784;SDS011;44557;51.862;19.378;2023-09-08T01:12:58;9.00;;;7.60;;
58784;SDS011;44557;51.862;19.378;2023-09-08T01:15:01;10.30;;;7.10;;
58784;SDS011;44557;51.862;19.378;2023-09-08T01:17:04;10.10;;;6.60;;
58784;SDS011;44557;51.862;19.378;2023-09-08T01:19:10;8.10;;;6.70;;
58784;SDS011;44557;51.862;19.378;2023-09-08T01:23:43;11.20;;;6.80;;
58784;SDS011;44557;51.862;19.378;2023-09-08T01:26:17;8.90;;;7.40;;
58784;SDS011;44557;51.862;19.378;2023-09-08T01:28:21;8.80;;;6.90;;
58784;SDS011;44557;51.862;19.378;2023-09-08T01:30:25;8.70;;;7.30;;
58784;SDS011;44557;51.862;19.378;2023-09-08T01:32:29;9.30;;;7.00;;
58784;SDS011;44557;51.862;19.378;2023-09-08T01:34:32;9.70;;;7.20;;
58784;SDS011;44557;51.862;19.378;2023-09-08T01:36:35;11.10;;;7.00;;
58784;SDS011;44557;51.862;19.378;2023-09-08T01:38:37;9.40;;;7.30;;
58784;SDS011;44557;51.862;19.378;2023-09-08T01:40:39;9.50;;;7.10;;
58784;SDS011;44557;51.862;19.378;2023-09-08T01:42:41;9.60;;;7.40;;
58784;SDS011;44557;51.862;19.378;2023-09-08T01:44:44;9.90;;;7.90;;
58784;SDS011;44557;51.862;19.378;2023-09-08T01:46:46;8.90;;;7.60;;
58784;SDS011;44557;51.862;19.378;2023-09-08T01:48:47;11.40;;;7.60;;
58784;SDS011;44557;51.862;19.378;2023-09-08T01:50:49;12.20;;;7.80;;
58784;SDS011;44557;51.862;19.378;2023-09-08T01:52:51;9.50;;;7.40;;
58784;SDS011;44557;51.862;19.378;2023-09-08T01:54:53;14.40;;;8.10;;
58784;SDS011;44557;51.862;19.378;2023-09-08T01:56:55;9.70;;;7.50;;
58784;SDS011;44557;51.862;19.378;2023-09-08T01:58:57;10.80;;;7.50;;
58784;SDS011;44557;51.862;19.378;2023-09-08T02:01:00;10.90;;;8.10;;
58784;SDS011;44557;51.862;19.378;2023-09-08T02:03:07;9.50;;;7.80;;
58784;SDS011;44557;51.862;19.378;2023-09-08T02:05:09;10.80;;;7.80;;
58784;SDS011;44557;51.862;19.378;2023-09-08T02:07:11;10.10;;;7.90;;
58784;SDS011;44557;51.862;19.378;2023-09-08T02:09:13;10.00;;;8.00;;
58784;SDS011;44557;51.862;19.378;2023-09-08T02:11:16;9.50;;;8.40;;
58784;SDS011;44557;51.862;19.378;2023-09-08T02:13:18;10.20;;;8.30;;
58784;SDS011;44557;51.862;19.378;2023-09-08T02:15:19;10.30;;;8.60;;
58784;SDS011;44557;51.862;19.378;2023-09-08T02:17:22;10.70;;;8.50;;
58784;SDS011;44557;51.862;19.378;2023-09-08T02:19:25;11.30;;;8.70;;
58784;SDS011;44557;51.862;19.378;2023-09-08T02:21:26;10.60;;;8.80;;
58784;SDS011;44557;51.862;19.378;2023-09-08T02:23:28;12.20;;;9.20;;
58784;SDS011;44557;51.862;19.378;2023-09-08T02:25:30;11.40;;;9.60;;
58784;SDS011;44557;51.862;19.378;2023-09-08T02:27:32;10.80;;;9.60;;
58784;SDS011;44557;51.862;19.378;2023-09-08T02:29:34;11.70;;;9.90;;
58784;SDS011;44557;51.862;19.378;2023-09-08T02:31:37;12.50;;;9.60;;
58784;SDS011;44557;51.862;19.378;2023-09-08T02:33:38;10.90;;;9.10;;
58784;SDS011;44557;51.862;19.378;2023-09-08T02:35:41;13.00;;;9.30;;
58784;SDS011;44557;51.862;19.378;2023-09-08T02:37:43;12.40;;;9.50;;
58784;SDS011;44557;51.862;19.378;2023-09-08T02:39:44;13.10;;;9.60;;
58784;SDS011;44557;51.862;19.378;2023-09-08T02:41:46;12.20;;;9.50;;
58784;SDS011;44557;51.862;19.378;2023-09-08T02:43:47;13.40;;;9.90;;
58784;SDS011;44557;51.862;19.378;2023-09-08T02:45:49;11.90;;;9.40;;
58784;SDS011;44557;51.862;19.378;2023-09-08T02:47:51;10.70;;;9.10;;
58784;SDS011;44557;51.862;19.378;2023-09-08T02:49:54;10.80;;;8.40;;
58784;SDS011;44557;51.862;19.378;2023-09-08T02:51:55;12.00;;;9.80;;
58784;SDS011;44557;51.862;19.378;2023-09-08T02:53:58;10.70;;;8.50;;
58784;SDS011;44557;51.862;19.378;2023-09-08T02:56:00;10.40;;;8.50;;
58784;SDS011;44557;51.862;19.378;2023-09-08T02:58:01;10.80;;;9.10;;
58784;SDS011;44557;51.862;19.378;2023-09-08T03:00:04;11.50;;;10.30;;
58784;SDS011;44557;51.862;19.378;2023-09-08T03:02:07;13.80;;;10.10;;
58784;SDS011;44557;51.862;19.378;2023-09-08T03:04:09;13.40;;;11.30;;
58784;SDS011;44557;51.862;19.378;2023-09-08T03:06:13;11.30;;;10.00;;
58784;SDS011;44557;51.862;19.378;2023-09-08T03:08:16;12.80;;;11.10;;
58784;SDS011;44557;51.862;19.378;2023-09-08T03:10:18;14.50;;;11.20;;
58784;SDS011;44557;51.862;19.378;2023-09-08T03:12:20;13.10;;;11.60;;
58784;SDS011;44557;51.862;19.378;2023-09-08T03:14:25;12.90;;;11.60;;
58784;SDS011;44557;51.862;19.378;2023-09-08T03:16:27;15.80;;;11.50;;
58784;SDS011;44557;51.862;19.378;2023-09-08T03:18:28;13.50;;;11.70;;
58784;SDS011;44557;51.862;19.378;2023-09-08T03:20:31;14.10;;;12.00;;
58784;SDS011;44557;51.862;19.378;2023-09-08T03:22:32;12.00;;;10.10;;
58784;SDS011;44557;51.862;19.378;2023-09-08T03:24:34;12.10;;;10.80;;
58784;SDS011;44557;51.862;19.378;2023-09-08T03:26:36;13.20;;;11.20;;
58784;SDS011;44557;51.862;19.378;2023-09-08T03:28:38;13.30;;;11.90;;
58784;SDS011;44557;51.862;19.378;2023-09-08T03:30:40;15.10;;;11.50;;
58784;SDS011;44557;51.862;19.378;2023-09-08T03:32:41;15.60;;;11.40;;
58784;SDS011;44557;51.862;19.378;2023-09-08T03:34:43;12.10;;;10.10;;
58784;SDS011;44557;51.862;19.378;2023-09-08T03:36:46;13.50;;;11.90;;
58784;SDS011;44557;51.862;19.378;2023-09-08T03:38:49;13.80;;;12.40;;
58784;SDS011;44557;51.862;19.378;2023-09-08T03:40:50;14.80;;;12.00;;
58784;SDS011;44557;51.862;19.378;2023-09-08T03:42:52;14.80;;;12.30;;
58784;SDS011;44557;51.862;19.378;2023-09-08T03:44:54;14.90;;;13.20;;
58784;SDS011;44557;51.862;19.378;2023-09-08T03:46:57;16.30;;;13.20;;
58784;SDS011;44557;51.862;19.378;2023-09-08T03:48:58;16.20;;;14.50;;
58784;SDS011;44557;51.862;19.378;2023-09-08T03:51:02;14.00;;;12.50;;
58784;SDS011;44557;51.862;19.378;2023-09-08T03:53:05;16.40;;;13.50;;
58784;SDS011;44557;51.862;19.378;2023-09-08T03:55:07;16.30;;;13.10;;
58784;SDS011;44557;51.862;19.378;2023-09-08T03:57:09;15.20;;;13.40;;
58784;SDS011;44557;51.862;19.378;2023-09-08T03:59:12;15.60;;;13.70;;
58784;SDS011;44557;51.862;19.378;2023-09-08T04:01:14;16.00;;;13.00;;
58784;SDS011;44557;51.862;19.378;2023-09-08T04:03:16;15.30;;;12.70;;
58784;SDS011;44557;51.862;19.378;2023-09-08T04:05:18;17.30;;;14.20;;
58784;SDS011;44557;51.862;19.378;2023-09-08T04:07:21;16.50;;;13.30;;
58784;SDS011;44557;51.862;19.378;2023-09-08T04:09:23;16.00;;;12.80;;
58784;SDS011;44557;51.862;19.378;2023-09-08T04:11:25;15.80;;;13.90;;
58784;SDS011;44557;51.862;19.378;2023-09-08T04:13:27;18.70;;;13.50;;
58784;SDS011;44557;51.862;19.378;2023-09-08T04:15:30;17.60;;;13.70;;
58784;SDS011;44557;51.862;19.378;2023-09-08T04:17:32;15.70;;;13.50;;
58784;SDS011;44557;51.862;19.378;2023-09-08T04:19:35;18.80;;;12.70;;
58784;SDS011;44557;51.862;19.378;2023-09-08T04:21:36;17.00;;;13.40;;
58784;SDS011;44557;51.862;19.378;2023-09-08T04:23:39;17.10;;;12.90;;
58784;SDS011;44557;51.862;19.378;2023-09-08T04:25:41;15.60;;;13.20;;
58784;SDS011;44557;51.862;19.378;2023-09-08T04:27:43;16.50;;;13.50;;
58784;SDS011;44557;51.862;19.378;2023-09-08T04:29:46;18.10;;;14.00;;
58784;SDS011;44557;51.862;19.378;2023-09-08T04:31:49;16.70;;;13.30;;
58784;SDS011;44557;51.862;19.378;2023-09-08T04:33:51;16.90;;;13.30;;
58784;SDS011;44557;51.862;19.378;2023-09-08T04:35:55;16.30;;;13.00;;
58784;SDS011;44557;51.862;19.378;2023-09-08T04:37:57;16.90;;;13.50;;
58784;SDS011;44557;51.862;19.378;2023-09-08T04:39:58;17.60;;;13.70;;
58784;SDS011;44557;51.862;19.378;2023-09-08T04:42:01;14.90;;;13.30;;
58784;SDS011;44557;51.862;19.378;2023-09-08T04:44:03;15.60;;;13.90;;
58784;SDS011;44557;51.862;19.378;2023-09-08T04:46:07;17.50;;;14.70;;
58784;SDS011;44557;51.862;19.378;2023-09-08T04:48:10;18.40;;;13.90;;
58784;SDS011;44557;51.862;19.378;2023-09-08T04:50:12;15.70;;;14.00;;
58784;SDS011;44557;51.862;19.378;2023-09-08T04:52:14;16.90;;;13.60;;
58784;SDS011;44557;51.862;19.378;2023-09-08T04:54:16;16.40;;;14.40;;
58784;SDS011;44557;51.862;19.378;2023-09-08T04:56:18;18.80;;;14.10;;
58784;SDS011;44557;51.862;19.378;2023-09-08T04:58:21;17.80;;;13.40;;
58784;SDS011;44557;51.862;19.378;2023-09-08T05:00:23;19.00;;;13.30;;
58784;SDS011;44557;51.862;19.378;2023-09-08T05:02:25;17.20;;;13.50;;
58784;SDS011;44557;51.862;19.378;2023-09-08T05:04:28;19.70;;;14.00;;
58784;SDS011;44557;51.862;19.378;2023-09-08T05:06:29;17.50;;;14.00;;
58784;SDS011;44557;51.862;19.378;2023-09-08T05:08:31;17.70;;;13.70;;
58784;SDS011;44557;51.862;19.378;2023-09-08T05:10:34;16.70;;;13.80;;
58784;SDS011;44557;51.862;19.378;2023-09-08T05:12:35;19.30;;;13.80;;
58784;SDS011;44557;51.862;19.378;2023-09-08T05:14:38;19.50;;;14.20;;
58784;SDS011;44557;51.862;19.378;2023-09-08T05:16:41;21.40;;;14.40;;
58784;SDS011;44557;51.862;19.378;2023-09-08T05:18:52;17.10;;;13.80;;
58784;SDS011;44557;51.862;19.378;2023-09-08T05:20:54;18.60;;;12.70;;
58784;SDS011;44557;51.862;19.378;2023-09-08T05:22:56;20.50;;;13.30;;
58784;SDS011;44557;51.862;19.378;2023-09-08T05:24:58;17.50;;;13.20;;
58784;SDS011;44557;51.862;19.378;2023-09-08T05:27:01;17.60;;;12.60;;
58784;SDS011;44557;51.862;19.378;2023-09-08T05:29:04;17.00;;;12.60;;
58784;SDS011;44557;51.862;19.378;2023-09-08T05:31:06;17.20;;;12.50;;
58784;SDS011;44557;51.862;19.378;2023-09-08T05:33:08;14.20;;;11.60;;
58784;SDS011;44557;51.862;19.378;2023-09-08T05:35:10;17.40;;;13.00;;
58784;SDS011;44557;51.862;19.378;2023-09-08T05:37:13;15.30;;;12.00;;
58784;SDS011;44557;51.862;19.378;2023-09-08T05:39:15;20.60;;;12.20;;
58784;SDS011;44557;51.862;19.378;2023-09-08T05:41:19;19.50;;;11.50;;
58784;SDS011;44557;51.862;19.378;2023-09-08T05:43:23;17.80;;;12.50;;
58784;SDS011;44557;51.862;19.378;2023-09-08T05:45:27;22.30;;;12.50;;
58784;SDS011;44557;51.862;19.378;2023-09-08T05:47:29;23.50;;;11.60;;
58784;SDS011;44557;51.862;19.378;2023-09-08T05:49:32;25.10;;;11.30;;
58784;SDS011;44557;51.862;19.378;2023-09-08T05:51:34;22.60;;;11.60;;
58784;SDS011;44557;51.862;19.378;2023-09-08T05:53:35;22.10;;;10.50;;
58784;SDS011;44557;51.862;19.378;2023-09-08T05:55:40;23.90;;;11.10;;
58784;SDS011;44557;51.862;19.378;2023-09-08T05:57:42;20.10;;;10.00;;
58784;SDS011;44557;51.862;19.378;2023-09-08T05:59:47;21.00;;;10.70;;
58784;SDS011;44557;51.862;19.378;2023-09-08T06:01:49;19.60;;;10.20;;
58784;SDS011;44557;51.862;19.378;2023-09-08T06:03:51;29.20;;;12.00;;
58784;SDS011;44557;51.862;19.378;2023-09-08T06:05:53;27.40;;;11.20;;
58784;SDS011;44557;51.862;19.378;2023-09-08T06:07:55;29.10;;;11.20;;
58784;SDS011;44557;51.862;19.378;2023-09-08T06:09:57;20.70;;;10.70;;
58784;SDS011;44557;51.862;19.378;2023-09-08T06:11:59;20.50;;;9.90;;
58784;SDS011;44557;51.862;19.378;2023-09-08T06:14:02;26.90;;;11.20;;
58784;SDS011;44557;51.862;19.378;2023-09-08T06:16:04;25.30;;;11.30;;
58784;SDS011;44557;51.862;19.378;2023-09-08T06:18:06;23.10;;;10.70;;
58784;SDS011;44557;51.862;19.378;2023-09-08T06:20:08;29.10;;;12.20;;
58784;SDS011;44557;51.862;19.378;2023-09-08T06:22:11;24.50;;;11.20;;
58784;SDS011;44557;51.862;19.378;2023-09-08T06:24:15;24.40;;;10.70;;
58784;SDS011;44557;51.862;19.378;2023-09-08T06:26:17;24.00;;;11.20;;
58784;SDS011;44557;51.862;19.378;2023-09-08T06:28:19;19.90;;;10.80;;
58784;SDS011;44557;51.862;19.378;2023-09-08T06:30:21;17.20;;;10.80;;
58784;SDS011;44557;51.862;19.378;2023-09-08T06:32:23;18.80;;;11.50;;
58784;SDS011;44557;51.862;19.378;2023-09-08T06:34:26;17.50;;;11.60;;
58784;SDS011;44557;51.862;19.378;2023-09-08T06:36:28;17.20;;;10.70;;
58784;SDS011;44557;51.862;19.378;2023-09-08T06:38:30;16.80;;;11.60;;
58784;SDS011;44557;51.862;19.378;2023-09-08T06:40:33;14.10;;;10.80;;
58784;SDS011;44557;51.862;19.378;2023-09-08T06:42:35;16.90;;;11.80;;
58784;SDS011;44557;51.862;19.378;2023-09-08T06:44:37;14.90;;;10.70;;
58784;SDS011;44557;51.862;19.378;2023-09-08T06:46:39;17.30;;;10.70;;
58784;SDS011;44557;51.862;19.378;2023-09-08T06:48:42;21.20;;;11.30;;
58784;SDS011;44557;51.862;19.378;2023-09-08T06:50:43;20.60;;;10.50;;
58784;SDS011;44557;51.862;19.378;2023-09-08T06:52:45;16.80;;;10.30;;
58784;SDS011;44557;51.862;19.378;2023-09-08T06:54:47;19.00;;;11.00;;
58784;SDS011;44557;51.862;19.378;2023-09-08T06:56:49;22.40;;;10.40;;
58784;SDS011;44557;51.862;19.378;2023-09-08T06:58:51;19.80;;;10.00;;
58784;SDS011;44557;51.862;19.378;2023-09-08T07:00:53;18.90;;;9.90;;
58784;SDS011;44557;51.862;19.378;2023-09-08T07:02:55;17.60;;;9.00;;
58784;SDS011;44557;51.862;19.378;2023-09-08T07:04:57;15.70;;;9.00;;
58784;SDS011;44557;51.862;19.378;2023-09-08T07:06:59;16.80;;;9.10;;
58784;SDS011;44557;51.862;19.378;2023-09-08T07:09:05;23.50;;;9.60;;
58784;SDS011;44557;51.862;19.378;2023-09-08T07:11:07;16.40;;;8.50;;
58784;SDS011;44557;51.862;19.378;2023-09-08T07:13:11;17.10;;;9.50;;
58784;SDS011;44557;51.862;19.378;2023-09-08T07:15:13;19.40;;;9.30;;
58784;SDS011;44557;51.862;19.378;2023-09-08T07:17:16;18.80;;;8.20;;
58784;SDS011;44557;51.862;19.378;2023-09-08T07:19:18;14.80;;;9.00;;
58784;SDS011;44557;51.862;19.378;2023-09-08T07:21:20;14.50;;;8.00;;
58784;SDS011;44557;51.862;19.378;2023-09-08T07:23:22;17.10;;;8.10;;
58784;SDS011;44557;51.862;19.378;2023-09-08T07:25:24;15.70;;;7.70;;
58784;SDS011;44557;51.862;19.378;2023-09-08T07:27:25;16.50;;;8.00;;
58784;SDS011;44557;51.862;19.378;2023-09-08T07:29:28;14.30;;;7.70;;
58784;SDS011;44557;51.862;19.378;2023-09-08T07:31:29;14.90;;;6.10;;
58784;SDS011;44557;51.862;19.378;2023-09-08T07:33:32;14.90;;;7.20;;
58784;SDS011;44557;51.862;19.378;2023-09-08T07:35:38;12.60;;;6.70;;
58784;SDS011;44557;51.862;19.378;2023-09-08T07:37:41;10.90;;;6.10;;
58784;SDS011;44557;51.862;19.378;2023-09-08T07:39:43;14.90;;;6.10;;
58784;SDS011;44557;51.862;19.378;2023-09-08T07:41:45;12.70;;;6.20;;
58784;SDS011;44557;51.862;19.378;2023-09-08T07:43:47;13.20;;;6.10;;
58784;SDS011;44557;51.862;19.378;2023-09-08T07:45:49;15.60;;;6.20;;
58784;SDS011;44557;51.862;19.378;2023-09-08T07:47:51;14.00;;;7.10;;
58784;SDS011;44557;51.862;19.378;2023-09-08T07:50:15;12.70;;;6.80;;
58784;SDS011;44557;51.862;19.378;2023-09-08T07:52:21;12.30;;;6.10;;
58784;SDS011;44557;51.862;19.378;2023-09-08T07:54:23;12.60;;;5.70;;
58784;SDS011;44557;51.862;19.378;2023-09-08T07:56:25;15.40;;;6.10;;
58784;SDS011;44557;51.862;19.378;2023-09-08T07:58:27;11.30;;;6.00;;
58784;SDS011;44557;51.862;19.378;2023-09-08T08:00:29;10.70;;;5.60;;
58784;SDS011;44557;51.862;19.378;2023-09-08T08:02:32;8.80;;;5.50;;
58784;SDS011;44557;51.862;19.378;2023-09-08T08:04:35;10.50;;;5.80;;
58784;SDS011;44557;51.862;19.378;2023-09-08T08:06:37;11.70;;;6.40;;
58784;SDS011;44557;51.862;19.378;2023-09-08T08:08:40;10.70;;;6.10;;
58784;SDS011;44557;51.862;19.378;2023-09-08T08:10:42;13.30;;;5.60;;
58784;SDS011;44557;51.862;19.378;2023-09-08T08:12:44;10.10;;;5.90;;
58784;SDS011;44557;51.862;19.378;2023-09-08T08:14:47;12.30;;;5.60;;
58784;SDS011;44557;51.862;19.378;2023-09-08T08:16:49;12.20;;;5.60;;
58784;SDS011;44557;51.862;19.378;2023-09-08T08:18:51;10.60;;;5.90;;
58784;SDS011;44557;51.862;19.378;2023-09-08T08:20:52;11.10;;;5.10;;
58784;SDS011;44557;51.862;19.378;2023-09-08T08:22:54;10.80;;;5.10;;
58784;SDS011;44557;51.862;19.378;2023-09-08T08:24:56;9.90;;;5.30;;
58784;SDS011;44557;51.862;19.378;2023-09-08T08:26:58;9.00;;;4.50;;
58784;SDS011;44557;51.862;19.378;2023-09-08T08:29:00;13.80;;;5.40;;
58784;SDS011;44557;51.862;19.378;2023-09-08T08:31:03;11.80;;;4.70;;
58784;SDS011;44557;51.862;19.378;2023-09-08T08:33:05;11.00;;;4.90;;
58784;SDS011;44557;51.862;19.378;2023-09-08T08:35:08;10.70;;;5.10;;
58784;SDS011;44557;51.862;19.378;2023-09-08T08:37:11;7.50;;;4.60;;
58784;SDS011;44557;51.862;19.378;2023-09-08T08:39:13;9.10;;;4.40;;
58784;SDS011;44557;51.862;19.378;2023-09-08T08:41:14;7.10;;;3.90;;
58784;SDS011;44557;51.862;19.378;2023-09-08T08:43:16;7.20;;;3.40;;
58784;SDS011;44557;51.862;19.378;2023-09-08T08:45:19;8.80;;;3.80;;
58784;SDS011;44557;51.862;19.378;2023-09-08T08:47:29;6.80;;;3.60;;
58784;SDS011;44557;51.862;19.378;2023-09-08T08:49:31;7.40;;;4.00;;
58784;SDS011;44557;51.862;19.378;2023-09-08T08:51:35;7.90;;;4.30;;
58784;SDS011;44557;51.862;19.378;2023-09-08T08:53:41;7.50;;;3.20;;
58784;SDS011;44557;51.862;19.378;2023-09-08T08:55:43;7.40;;;3.80;;
58784;SDS011;44557;51.862;19.378;2023-09-08T08:57:48;7.60;;;4.00;;
58784;SDS011;44557;51.862;19.378;2023-09-08T08:59:51;9.40;;;4.00;;
58784;SDS011;44557;51.862;19.378;2023-09-08T09:01:54;5.70;;;3.60;;
58784;SDS011;44557;51.862;19.378;2023-09-08T09:03:57;8.80;;;3.60;;
58784;SDS011;44557;51.862;19.378;2023-09-08T09:06:00;6.30;;;3.50;;
58784;SDS011;44557;51.862;19.378;2023-09-08T09:08:02;7.40;;;3.60;;
58784;SDS011;44557;51.862;19.378;2023-09-08T09:10:07;5.60;;;3.10;;
58784;SDS011;44557;51.862;19.378;2023-09-08T09:12:10;17.30;;;15.10;;
58784;SDS011;44557;51.862;19.378;2023-09-08T09:14:12;10.50;;;6.00;;
58784;SDS011;44557;51.862;19.378;2023-09-08T09:16:14;6.70;;;3.80;;
58784;SDS011;44557;51.862;19.378;2023-09-08T09:18:16;8.80;;;3.80;;
58784;SDS011;44557;51.862;19.378;2023-09-08T09:20:19;6.60;;;3.90;;
58784;SDS011;44557;51.862;19.378;2023-09-08T09:22:22;8.50;;;4.30;;
58784;SDS011;44557;51.862;19.378;2023-09-08T09:24:37;6.10;;;4.00;;
58784;SDS011;44557;51.862;19.378;2023-09-08T09:26:51;7.80;;;4.10;;
58784;SDS011;44557;51.862;19.378;2023-09-08T09:28:54;9.00;;;4.20;;
58784;SDS011;44557;51.862;19.378;2023-09-08T09:30:56;8.20;;;4.10;;
58784;SDS011;44557;51.862;19.378;2023-09-08T09:33:02;6.40;;;3.80;;
58784;SDS011;44557;51.862;19.378;2023-09-08T09:35:05;5.30;;;3.70;;
58784;SDS011;44557;51.862;19.378;2023-09-08T09:37:08;7.00;;;3.80;;
58784;SDS011;44557;51.862;19.378;2023-09-08T09:39:12;8.00;;;3.90;;
58784;SDS011;44557;51.862;19.378;2023-09-08T09:41:14;6.70;;;4.00;;
58784;SDS011;44557;51.862;19.378;2023-09-08T09:43:16;8.40;;;4.40;;
58784;SDS011;44557;51.862;19.378;2023-09-08T09:45:24;8.30;;;4.30;;
58784;SDS011;44557;51.862;19.378;2023-09-08T09:47:29;9.30;;;4.40;;
58784;SDS011;44557;51.862;19.378;2023-09-08T09:49:32;6.20;;;3.90;;
58784;SDS011;44557;51.862;19.378;2023-09-08T09:51:44;8.50;;;4.80;;
58784;SDS011;44557;51.862;19.378;2023-09-08T09:53:50;9.10;;;4.90;;
58784;SDS011;44557;51.862;19.378;2023-09-08T09:55:54;8.10;;;4.50;;
58784;SDS011;44557;51.862;19.378;2023-09-08T09:57:59;7.50;;;4.10;;
58784;SDS011;44557;51.862;19.378;2023-09-08T10:00:05;11.20;;;6.50;;
58784;SDS011;44557;51.862;19.378;2023-09-08T10:02:10;11.40;;;8.50;;
58784;SDS011;44557;51.862;19.378;2023-09-08T10:04:16;11.50;;;7.30;;
58784;SDS011;44557;51.862;19.378;2023-09-08T10:06:18;8.50;;;4.40;;
58784;SDS011;44557;51.862;19.378;2023-09-08T10:08:22;7.60;;;4.00;;
58784;SDS011;44557;51.862;19.378;2023-09-08T10:10:25;7.10;;;3.90;;
58784;SDS011;44557;51.862;19.378;2023-09-08T10:12:28;6.70;;;3.70;;
58784;SDS011;44557;51.862;19.378;2023-09-08T10:14:35;6.50;;;3.80;;
58784;SDS011;44557;51.862;19.378;2023-09-08T10:16:38;7.60;;;4.20;;
58784;SDS011;44557;51.862;19.378;2023-09-08T10:18:44;8.40;;;4.20;;
58784;SDS011;44557;51.862;19.378;2023-09-08T10:20:48;8.80;;;4.20;;
58784;SDS011;44557;51.862;19.378;2023-09-08T10:22:54;5.60;;;3.60;;
58784;SDS011;44557;51.862;19.378;2023-09-08T10:25:04;6.90;;;4.10;;
58784;SDS011;44557;51.862;19.378;2023-09-08T10:27:10;6.30;;;3.80;;
58784;SDS011;44557;51.862;19.378;2023-09-08T10:29:13;7.10;;;3.70;;
58784;SDS011;44557;51.862;19.378;2023-09-08T10:31:15;6.80;;;3.80;;
58784;SDS011;44557;51.862;19.378;2023-09-08T10:33:18;6.60;;;3.70;;
58784;SDS011;44557;51.862;19.378;2023-09-08T10:35:22;6.50;;;3.90;;
58784;SDS011;44557;51.862;19.378;2023-09-08T10:37:26;7.50;;;3.90;;
58784;SDS011;44557;51.862;19.378;2023-09-08T10:39:32;10.30;;;3.80;;
58784;SDS011;44557;51.862;19.378;2023-09-08T10:41:40;8.20;;;3.70;;
58784;SDS011;44557;51.862;19.378;2023-09-08T10:43:44;6.40;;;3.70;;
58784;SDS011;44557;51.862;19.378;2023-09-08T10:45:46;5.80;;;3.50;;
58784;SDS011;44557;51.862;19.378;2023-09-08T10:49:52;7.20;;;3.80;;
58784;SDS011;44557;51.862;19.378;2023-09-08T10:52:05;6.60;;;4.10;;
58784;SDS011;44557;51.862;19.378;2023-09-08T10:54:09;6.90;;;3.80;;
58784;SDS011;44557;51.862;19.378;2023-09-08T10:56:12;7.60;;;3.80;;
58784;SDS011;44557;51.862;19.378;2023-09-08T10:58:21;7.20;;;3.90;;
58784;SDS011;44557;51.862;19.378;2023-09-08T11:00:45;7.40;;;3.70;;
58784;SDS011;44557;51.862;19.378;2023-09-08T11:02:49;7.70;;;4.00;;
58784;SDS011;44557;51.862;19.378;2023-09-08T11:04:52;8.60;;;3.70;;
58784;SDS011;44557;51.862;19.378;2023-09-08T11:06:58;6.70;;;3.50;;
58784;SDS011;44557;51.862;19.378;2023-09-08T11:09:06;6.20;;;3.90;;
58784;SDS011;44557;51.862;19.378;2023-09-08T11:11:13;5.50;;;3.70;;
58784;SDS011;44557;51.862;19.378;2023-09-08T11:13:16;5.20;;;3.40;;
58784;SDS011;44557;51.862;19.378;2023-09-08T11:15:18;8.70;;;4.30;;
58784;SDS011;44557;51.862;19.378;2023-09-08T11:17:25;5.10;;;3.30;;
58784;SDS011;44557;51.862;19.378;2023-09-08T11:19:42;5.90;;;3.50;;
58784;SDS011;44557;51.862;19.378;2023-09-08T11:21:46;5.90;;;3.70;;
58784;SDS011;44557;51.862;19.378;2023-09-08T11:23:48;6.20;;;3.70;;
58784;SDS011;44557;51.862;19.378;2023-09-08T11:25:51;7.20;;;3.60;;
58784;SDS011;44557;51.862;19.378;2023-09-08T11:27:54;8.00;;;3.60;;
58784;SDS011;44557;51.862;19.378;2023-09-08T11:29:57;7.70;;;4.30;;
58784;SDS011;44557;51.862;19.378;2023-09-08T11:31:59;6.30;;;4.00;;
58784;SDS011;44557;51.862;19.378;2023-09-08T11:34:03;8.00;;;4.20;;
58784;SDS011;44557;51.862;19.378;2023-09-08T11:36:13;6.50;;;3.80;;
58784;SDS011;44557;51.862;19.378;2023-09-08T11:38:17;6.70;;;3.80;;
58784;SDS011;44557;51.862;19.378;2023-09-08T11:40:18;6.90;;;3.60;;
58784;SDS011;44557;51.862;19.378;2023-09-08T11:42:21;6.20;;;3.80;;
58784;SDS011;44557;51.862;19.378;2023-09-08T11:44:24;6.90;;;3.80;;
58784;SDS011;44557;51.862;19.378;2023-09-08T11:46:25;6.50;;;3.80;;
58784;SDS011;44557;51.862;19.378;2023-09-08T11:48:29;8.00;;;4.10;;
58784;SDS011;44557;51.862;19.378;2023-09-08T11:50:33;6.60;;;3.70;;
58784;SDS011;44557;51.862;19.378;2023-09-08T11:52:35;6.90;;;4.00;;
58784;SDS011;44557;51.862;19.378;2023-09-08T11:54:36;6.70;;;3.90;;
58784;SDS011;44557;51.862;19.378;2023-09-08T11:56:43;6.60;;;4.00;;
58784;SDS011;44557;51.862;19.378;2023-09-08T11:58:47;6.80;;;3.70;;
58784;SDS011;44557;51.862;19.378;2023-09-08T12:00:50;6.70;;;3.60;;
58784;SDS011;44557;51.862;19.378;2023-09-08T12:02:53;6.60;;;3.90;;
58784;SDS011;44557;51.862;19.378;2023-09-08T12:04:55;7.80;;;4.20;;
58784;SDS011;44557;51.862;19.378;2023-09-08T12:06:57;8.30;;;4.30;;